Time;durP1;ratioP1;P1;durP2;ratioP2;P2;SDS_P1;SDS_P2;PMS_P1;PMS_P2;Temp;Humidity;BMP_temperature;BMP_pressure;BME280_temperature;BME280_humidity;BME280_pressure;Samples;Min_cycle;Max_cycle;Signal;HPM_P1;HPM_P2
2022/01/16 00:00:04;;;;;;;25.50;21.30;;;;;;;3.00;72.68;101831.72;4985782;28;20503;-79
2022/01/16 00:05:36;;;;;;;24.67;21.37;;;;;;;4.69;72.77;102100.16;5049730;28;20076;-81
2022/01/16 00:08:23;;;;;;;;;;;;;;;;;;;;;
2022/01/16 00:10:59;;;;;;;25.60;22.83;;;;;;;4.71;72.61;102116.75;5068557;28;20437;-79
2022/01/16 00:13:42;;;;;;;26.87;22.50;;;;;;;4.70;72.25;102093.97;5078440;28;20116;-80
2022/01/16 00:16:39;;;;;;;25.97;21.67;;;;;;;4.66;72.48;102098.50;5062412;28;20056;-79
2022/01/16 00:19:06;;;;;;;24.53;21.90;;;;;;;4.59;72.45;102091.78;5077177;28;20049;-81
2022/01/16 00:21:54;;;;;;;27.20;23.08;;;;;;;4.55;72.56;102123.53;5073965;28;20048;-81
2022/01/16 00:24:33;;;;;;;24.73;22.13;;;;;;;4.52;72.74;102126.28;5054645;28;20491;-80
2022/01/16 00:27:03;;;;;;;24.17;21.57;;;;;;;3.99;72.58;102046.78;5055592;28;20049;-81
2022/01/16 00:29:34;;;;;;;25.90;22.30;;;;;;;4.51;72.73;102072.81;5054148;28;20120;-81
2022/01/16 00:32:00;;;;;;;23.93;21.33;;;;;;;4.31;72.70;102070.13;5054915;28;20076;-79
2022/01/16 00:34:27;;;;;;;27.37;22.80;;;;;;;4.50;72.82;102103.50;5054352;28;20055;-81
2022/01/16 00:36:57;;;;;;;25.83;22.80;;;;;;;4.47;72.80;102102.78;5054399;28;20076;-81
2022/01/16 00:39:23;;;;;;;25.30;21.33;;;;;;;4.43;72.48;102107.28;5071879;28;20142;-80
2022/01/16 00:41:50;;;;;;;26.63;21.90;;;;;;;4.38;72.47;102127.66;5054380;28;20903;-81
2022/01/16 00:44:16;;;;;;;25.60;21.20;;;;;;;4.31;72.60;102120.91;5053933;28;20123;-81
2022/01/16 00:46:43;;;;;;;24.47;21.30;;;;;;;4.38;72.98;102139.94;5053785;28;20067;-81
2022/01/16 00:49:10;;;;;;;26.23;21.93;;;;;;;4.19;72.46;102103.84;5054377;28;20048;-81
2022/01/16 00:51:37;;;;;;;21.87;19.23;;;;;;;4.10;72.83;102085.78;5071610;28;20491;-81
2022/01/16 00:54:03;;;;;;;23.10;20.60;;;;;;;4.17;73.04;102110.06;5070597;28;20051;-80
2022/01/16 00:56:30;;;;;;;26.50;21.13;;;;;;;3.57;72.83;101955.56;5054072;28;20098;-81
2022/01/16 00:58:56;;;;;;;22.00;19.67;;;;;;;4.26;73.28;102063.25;5054296;28;20143;-81
2022/01/16 01:01:25;;;;;;;26.03;22.03;;;;;;;4.23;72.78;102039.72;5053459;28;20059;-82
2022/01/16 01:03:52;;;;;;;22.80;20.20;;;;;;;4.06;72.83;102029.03;5071863;28;20075;-80
2022/01/16 01:06:19;;;;;;;21.90;19.53;;;;;;;3.78;73.20;101963.53;5053476;28;20048;-80
2022/01/16 01:08:46;;;;;;;22.27;19.53;;;;;;;4.21;73.30;102053.84;5086420;28;20554;-81
2022/01/16 01:11:16;;;;;;;21.27;19.03;;;;;;;4.15;73.43;102078.59;5070761;28;20392;-80
2022/01/16 01:13:56;;;;;;;19.50;16.87;;;;;;;4.23;73.60;102110.69;5053341;28;20126;-81
2022/01/16 01:16:25;;;;;;;20.67;16.73;;;;;;;4.10;73.26;102079.69;5053315;28;20048;-80
2022/01/16 01:18:52;;;;;;;21.70;16.87;;;;;;;4.20;73.28;102109.94;5052242;28;20063;-80
2022/01/16 01:21:28;;;;;;;17.00;15.30;;;;;;;4.19;73.33;102103.84;5053119;28;20053;-79
2022/01/16 01:23:57;;;;;;;16.77;14.97;;;;;;;4.27;73.35;102111.44;5086923;28;20088;-80
2022/01/16 01:26:29;;;;;;;18.97;14.67;;;;;;;3.96;73.48;102074.97;5053015;28;20098;-80
2022/01/16 01:28:56;;;;;;;;;;;;;;;4.27;73.25;102137.72;5053604;28;20045;-80
2022/01/16 01:31:22;;;;;;;19.53;16.40;;;;;;;4.29;73.05;102135.88;5052779;28;20358;-80
2022/01/16 01:33:50;;;;;;;16.73;14.13;;;;;;;4.04;73.49;102097.41;5070856;28;20056;-80
2022/01/16 01:36:16;;;;;;;20.53;15.13;;;;;;;4.21;73.88;102138.81;5052961;28;20048;-80
2022/01/16 01:38:43;;;;;;;15.70;14.00;;;;;;;4.33;73.48;102148.00;5052860;28;20140;-80
2022/01/16 01:41:11;;;;;;;17.43;13.83;;;;;;;4.21;73.45;102123.03;5052734;28;20081;-80
2022/01/16 01:51:44;;;;;;;19.60;14.77;;;;;;;3.98;72.71;102110.78;5070906;28;20052;-81
2022/01/16 01:54:12;;;;;;;15.37;13.73;;;;;;;4.17;72.78;102149.50;5053038;28;20084;-81
2022/01/16 01:56:39;;;;;;;16.50;14.83;;;;;;;4.35;73.19;102171.63;5086017;28;20452;-80
2022/01/16 01:59:10;;;;;;;16.47;14.63;;;;;;;4.33;73.30;102163.78;5070606;28;20116;-81
2022/01/16 02:01:36;;;;;;;16.00;14.37;;;;;;;3.84;73.02;102077.13;5068276;28;20578;-80
2022/01/16 02:04:03;;;;;;;16.00;13.73;;;;;;;4.30;73.04;102169.19;5048599;28;20400;-80
2022/01/16 02:06:32;;;;;;;15.90;14.20;;;;;;;4.33;72.42;102148.00;5048601;28;20110;-81
2022/01/16 02:09:03;;;;;;;17.23;13.87;;;;;;;4.33;73.05;102148.00;5045931;28;20554;-81
2022/01/16 02:11:32;;;;;;;15.90;13.90;;;;;;;4.20;73.34;102115.19;5029318;28;20056;-81
2022/01/16 02:14:24;;;;;;;21.70;14.97;;;;;;;4.32;72.86;102146.31;5047469;28;20102;-82
2022/01/16 02:28:37;;;;;;;16.20;14.17;;;;;;;4.19;73.15;102119.59;5046356;28;20148;-82
2022/01/16 02:31:22;;;;;;;16.80;14.70;;;;;;;4.31;73.02;102147.22;5030866;28;20045;-81
2022/01/16 02:36:33;;;;;;;18.57;16.13;;;;;;;4.29;72.74;102130.63;5050514;28;20132;-81
2022/01/16 02:39:08;;;;;;;18.90;15.53;;;;;;;3.96;72.87;102069.72;5032764;28;20041;-81
2022/01/16 02:41:35;;;;;;;17.80;15.30;;;;;;;4.19;72.39;102113.50;5032658;28;20157;-82
2022/01/16 02:44:11;;;;;;;16.83;15.00;;;;;;;4.19;72.95;102134.53;5050343;28;20072;-81
2022/01/16 02:46:39;;;;;;;17.03;14.70;;;;;;;4.14;73.48;102120.72;5032191;28;20144;-81
2022/01/16 02:49:19;;;;;;;16.80;14.73;;;;;;;4.15;73.07;102118.03;5032302;28;20052;-81
2022/01/16 02:51:47;;;;;;;16.73;15.03;;;;;;;4.13;73.32;102104.09;5032255;28;20099;-80
2022/01/16 02:54:14;;;;;;;17.00;15.20;;;;;;;3.82;73.45;102051.81;5032065;28;20055;-82
2022/01/16 02:56:41;;;;;;;20.10;16.13;;;;;;;4.10;73.70;102098.06;5032635;28;20048;-80
2022/01/16 02:59:12;;;;;;;17.47;15.63;;;;;;;4.07;73.00;102101.69;5032772;28;20562;-81
2022/01/16 03:01:39;;;;;;;18.37;15.57;;;;;;;4.02;73.41;102090.50;5050766;28;20152;-81
2022/01/16 03:04:07;;;;;;;18.17;15.13;;;;;;;3.92;73.18;102089.97;5052352;28;20048;-80
2022/01/16 03:06:34;;;;;;;17.10;15.20;;;;;;;4.00;73.23;102098.41;5052349;28;20088;-80
2022/01/16 03:09:05;;;;;;;17.43;15.53;;;;;;;3.94;73.05;102093.41;5051938;28;20051;-82
2022/01/16 03:11:38;;;;;;;16.73;14.93;;;;;;;3.99;73.37;102096.72;5069674;28;20045;-81
2022/01/16 03:14:09;;;;;;;15.43;13.90;;;;;;;3.63;73.26;102026.25;5051745;28;20071;-81
2022/01/16 03:16:36;;;;;;;19.37;14.97;;;;;;;3.97;73.53;102088.03;5051752;28;20559;-81
2022/01/16 03:21:54;;;;;;;14.93;13.33;;;;;;;3.76;72.92;102067.81;5069590;28;20479;-80
2022/01/16 03:24:26;;;;;;;16.47;14.17;;;;;;;4.07;72.92;102113.03;5068229;28;20503;-81
2022/01/16 03:26:54;;;;;;;15.57;13.88;;;;;;;4.06;73.08;102107.88;5069603;28;20248;-80
2022/01/16 03:29:21;;;;;;;15.03;13.53;;;;;;;3.90;72.57;102088.31;5051903;28;20164;-80
2022/01/16 03:31:48;;;;;;;15.47;13.03;;;;;;;4.03;72.75;102116.72;5051770;28;20135;-79
2022/01/16 03:34:15;;;;;;;15.90;14.20;;;;;;;3.93;72.87;102096.97;5067872;28;20072;-80
2022/01/16 03:36:41;;;;;;;15.43;13.53;;;;;;;3.90;72.72;102091.78;5067909;28;20075;-81
2022/01/16 03:39:08;;;;;;;16.40;14.63;;;;;;;3.56;72.79;102037.03;5051302;28;20048;-81
2022/01/16 03:41:37;;;;;;;16.57;14.87;;;;;;;3.97;72.97;102114.31;5050917;28;20055;-81
2022/01/16 03:44:08;;;;;;;17.50;13.40;;;;;;;3.99;72.67;102112.47;5051068;28;20048;-80
2022/01/16 03:46:38;;;;;;;16.53;14.80;;;;;;;4.12;72.90;102119.91;5051180;28;20488;-82
2022/01/16 03:49:15;;;;;;;17.60;14.73;;;;;;;4.09;72.67;102101.63;5051340;28;20053;-83
2022/01/16 03:51:44;;;;;;;16.83;13.97;;;;;;;4.01;72.33;102091.41;5051373;28;20082;-81
2022/01/16 03:54:14;;;;;;;15.97;14.03;;;;;;;4.19;72.41;102124.88;5069318;28;20063;-83
2022/01/16 03:56:42;;;;;;;16.20;14.50;;;;;;;4.16;71.93;102111.00;5084439;28;20140;-81
2022/01/16 03:59:09;;;;;;;16.33;14.47;;;;;;;4.20;72.27;102128.34;5051361;28;20350;-82
2022/01/16 04:01:36;;;;;;;17.27;15.27;;;;;;;3.58;72.27;102017.69;5050328;28;20135;-82
2022/01/16 04:04:04;;;;;;;17.73;14.50;;;;;;;3.19;72.13;101954.38;5050683;28;20052;-82
2022/01/16 04:06:31;;;;;;;16.67;14.07;;;;;;;3.80;72.68;102058.91;5051243;28;20040;-82
2022/01/16 04:08:59;;;;;;;18.73;15.43;;;;;;;3.26;72.38;101974.22;5050915;28;20139;-79
2022/01/16 04:11:28;;;;;;;17.10;15.30;;;;;;;4.05;72.54;102107.00;5068774;28;20490;-81
2022/01/16 04:14:14;;;;;;;20.27;15.27;;;;;;;3.96;72.73;102088.09;5050345;28;20384;-81
2022/01/16 04:16:44;;;;;;;17.07;14.93;;;;;;;3.76;72.53;102044.16;5068004;28;20082;-82
2022/01/16 04:19:10;;;;;;;17.17;15.40;;;;;;;4.04;72.52;102094.78;5050967;28;20059;-81
2022/01/16 04:21:40;;;;;;;17.50;15.13;;;;;;;3.89;72.22;102055.94;5051328;28;20078;-81
2022/01/16 04:24:07;;;;;;;17.93;16.03;;;;;;;3.68;72.22;102012.09;5068468;28;20128;-82
2022/01/16 04:26:34;;;;;;;16.90;15.03;;;;;;;4.16;72.44;102090.81;5050653;28;20139;-82
2022/01/16 04:29:00;;;;;;;18.93;16.00;;;;;;;3.85;72.17;102033.31;5050802;28;20140;-81
2022/01/16 04:31:27;;;;;;;19.80;17.70;;;;;;;3.96;71.73;102038.19;5050424;28;20641;-82
2022/01/16 04:33:54;;;;;;;20.07;16.53;;;;;;;3.86;71.49;102021.91;5050789;28;20131;-81
2022/01/16 04:36:21;;;;;;;19.93;15.60;;;;;;;4.09;71.28;102051.69;5058188;28;20136;-81
2022/01/16 04:38:50;;;;;;;19.10;16.27;;;;;;;4.17;71.90;102073.28;5055405;28;20079;-81
2022/01/16 04:44:03;;;;;;;20.07;16.47;;;;;;;3.17;70.95;101907.19;5068317;28;20148;-79
2022/01/16 04:46:31;;;;;;;18.30;16.40;;;;;;;4.21;71.48;102075.72;5050175;28;20048;-81
2022/01/16 04:49:00;;;;;;;17.00;15.13;;;;;;;4.21;71.70;102080.13;5050093;28;20053;-81
2022/01/16 04:51:31;;;;;;;17.40;15.17;;;;;;;3.72;71.85;101997.94;5083530;28;20076;-81
2022/01/16 04:53:58;;;;;;;17.50;15.57;;;;;;;4.14;71.85;102070.78;5050093;28;20132;-81
2022/01/16 04:56:24;;;;;;;17.80;16.00;;;;;;;4.22;71.54;102079.19;5050126;28;20135;-81
2022/01/16 04:58:54;;;;;;;19.20;16.90;;;;;;;4.05;71.77;102054.44;5049841;28;20208;-81
2022/01/16 05:01:23;;;;;;;18.50;16.27;;;;;;;3.90;71.90;102031.38;5049943;28;20072;-81
2022/01/16 05:03:50;;;;;;;18.23;16.07;;;;;;;4.11;71.85;102057.75;5049892;28;20049;-81
2022/01/16 05:06:17;;;;;;;19.73;16.87;;;;;;;3.97;71.03;102045.97;5083294;28;20222;-80
2022/01/16 05:08:49;;;;;;;19.83;16.43;;;;;;;4.13;71.59;102072.56;5082846;28;20495;-81
2022/01/16 05:11:20;;;;;;;21.13;16.63;;;;;;;3.97;71.98;102045.97;5051669;28;20068;-81
2022/01/16 05:19:00;;;;;;;17.80;15.73;;;;;;;4.00;72.05;102056.38;5071261;28;20460;-80
2022/01/16 05:21:26;;;;;;;19.37;16.67;;;;;;;4.21;71.69;102056.47;5067647;28;20126;-81
2022/01/16 05:23:55;;;;;;;20.80;17.50;;;;;;;4.26;71.71;102057.16;5073284;28;20131;-79
2022/01/16 05:26:27;;;;;;;19.20;16.43;;;;;;;4.26;71.21;102036.13;5067679;28;20415;-80
2022/01/16 05:28:54;;;;;;;;;;;;;;;4.40;71.39;102059.25;5084915;28;20138;-80
2022/01/16 05:31:22;;;;;;;18.90;16.83;;;;;;;4.37;70.70;102061.97;5067699;28;19930;-82
2022/01/16 05:33:50;;;;;;;19.87;17.13;;;;;;;4.15;71.31;102038.31;5067435;28;20082;-82
2022/01/16 05:36:20;;;;;;;21.50;18.13;;;;;;;4.24;71.21;102066.88;5067569;28;20474;-80
2022/01/16 05:38:47;;;;;;;19.63;17.47;;;;;;;3.83;72.01;101979.97;5067485;28;20135;-80
2022/01/16 05:41:14;;;;;;;19.60;17.50;;;;;;;4.29;71.43;102059.66;5085474;28;20490;-82
2022/01/16 05:43:41;;;;;;;20.17;18.00;;;;;;;4.19;71.48;102039.91;5067615;28;20136;-80
2022/01/16 05:46:07;;;;;;;19.77;17.67;;;;;;;4.24;71.50;102064.22;5067754;28;20059;-82
2022/01/16 05:48:37;;;;;;;19.83;17.70;;;;;;;3.70;71.40;101960.34;5083969;28;20048;-82
2022/01/16 05:51:09;;;;;;;20.17;17.33;;;;;;;4.18;71.07;102027.69;5066829;28;20461;-81
2022/01/16 05:53:38;;;;;;;20.27;17.48;;;;;;;4.22;71.50;102045.03;5067495;28;20516;-81
2022/01/16 05:56:05;;;;;;;22.43;18.07;;;;;;;4.03;71.69;102030.00;5067059;28;20040;-81
2022/01/16 05:58:33;;;;;;;20.40;16.93;;;;;;;4.07;71.96;102052.59;5084304;28;20145;-80
2022/01/16 06:00:59;;;;;;;19.87;17.70;;;;;;;4.19;71.63;102071.44;5066945;28;20100;-82
2022/01/16 06:03:29;;;;;;;20.47;18.03;;;;;;;4.01;71.91;102050.22;5066643;28;20060;-82
2022/01/16 06:05:55;;;;;;;20.07;17.57;;;;;;;4.22;71.38;102063.44;5050717;28;20470;-80
2022/01/16 06:08:22;;;;;;;21.10;18.73;;;;;;;4.07;71.26;102036.81;5063726;28;20426;-80
2022/01/16 06:10:49;;;;;;;20.40;16.90;;;;;;;4.16;71.30;102066.31;5064684;28;20514;-80
2022/01/16 06:13:16;;;;;;;20.03;17.70;;;;;;;4.15;71.74;102075.09;5080147;28;20143;-81
2022/01/16 06:15:46;;;;;;;19.33;17.07;;;;;;;4.25;71.07;102076.47;5064705;28;20051;-80
2022/01/16 06:18:14;;;;;;;20.70;17.57;;;;;;;4.25;70.88;102076.47;5047291;28;20057;-80
2022/01/16 06:20:41;;;;;;;19.10;17.07;;;;;;;3.80;70.53;102011.63;5047274;28;20048;-81
2022/01/16 06:23:08;;;;;;;20.27;16.83;;;;;;;4.06;71.26;102057.94;5064919;28;20372;-80
2022/01/16 06:25:35;;;;;;;19.27;17.17;;;;;;;4.13;71.12;102082.22;5064617;28;20048;-81
2022/01/16 06:28:04;;;;;;;19.00;16.17;;;;;;;4.09;71.70;102080.59;5046834;28;20139;-81
2022/01/16 06:30:30;;;;;;;20.13;17.17;;;;;;;4.03;71.85;102079.94;5064569;28;20519;-81
2022/01/16 06:32:57;;;;;;;19.90;17.77;;;;;;;3.51;72.12;101991.72;5046772;28;20518;-82
2022/01/16 06:35:24;;;;;;;21.40;18.43;;;;;;;3.93;72.10;102075.06;5046704;28;20163;-81
2022/01/16 06:37:51;;;;;;;17.73;15.70;;;;;;;3.43;72.75;101997.25;5046383;28;20044;-81
2022/01/16 06:40:17;;;;;;;19.63;17.53;;;;;;;3.78;72.46;102063.34;5042325;28;20092;-80
2022/01/16 06:42:44;;;;;;;20.73;17.67;;;;;;;3.55;72.63;102019.56;5043983;28;20045;-81
2022/01/16 06:45:11;;;;;;;22.90;17.63;;;;;;;3.95;71.72;102091.63;5027732;28;20297;-84
2022/01/16 06:47:38;;;;;;;20.93;16.60;;;;;;;3.73;72.30;102062.69;5045654;28;20047;-81
2022/01/16 06:50:06;;;;;;;21.73;17.27;;;;;;;3.28;72.36;101989.94;5100612;28;20447;-80
2022/01/16 06:52:33;;;;;;;18.93;16.70;;;;;;;3.75;72.42;102079.25;5067170;28;20518;-81
2022/01/16 06:55:00;;;;;;;18.80;16.23;;;;;;;3.84;72.63;102097.28;5100297;28;20135;-80
2022/01/16 06:57:26;;;;;;;20.73;15.87;;;;;;;3.51;72.89;102052.09;5067000;28;20486;-80
2022/01/16 06:59:53;;;;;;;20.93;17.57;;;;;;;3.77;73.15;102109.78;5067403;28;20082;-81
2022/01/16 07:02:22;;;;;;;18.23;16.27;;;;;;;3.40;72.81;102039.38;5100714;28;20095;-82
2022/01/16 07:04:49;;;;;;;18.67;16.07;;;;;;;3.75;73.25;102092.38;5067495;28;20043;-82
2022/01/16 07:07:16;;;;;;;19.53;16.93;;;;;;;3.69;72.91;102075.06;5067171;28;20060;-82
2022/01/16 07:09:45;;;;;;;19.13;16.37;;;;;;;3.87;73.26;102112.94;5057071;28;20055;-82
2022/01/16 07:12:11;;;;;;;17.43;15.43;;;;;;;3.72;72.75;102093.34;5045686;28;20071;-82
2022/01/16 07:14:38;;;;;;;24.83;18.67;;;;;;;3.49;72.46;102052.13;5046467;28;20053;-81
2022/01/16 07:17:05;;;;;;;19.23;17.17;;;;;;;3.79;72.98;102092.22;5046266;28;20056;-82
2022/01/16 07:19:32;;;;;;;19.17;16.43;;;;;;;3.91;73.30;102117.19;5064632;28;20221;-82
2022/01/16 07:21:59;;;;;;;19.47;16.57;;;;;;;3.91;73.30;102109.28;5069979;28;20048;-80
2022/01/16 07:24:26;;;;;;;19.83;16.63;;;;;;;3.93;73.29;102107.47;5072724;28;20086;-81
2022/01/16 07:26:54;;;;;;;17.97;15.83;;;;;;;3.95;72.89;102110.88;5078336;28;20106;-80
2022/01/16 07:29:21;;;;;;;19.10;15.53;;;;;;;3.91;73.14;102114.56;5051313;28;20048;-81
2022/01/16 07:31:48;;;;;;;17.40;15.33;;;;;;;3.92;73.21;102108.38;5050468;28;20368;-81
2022/01/16 07:34:14;;;;;;;16.97;14.43;;;;;;;3.73;72.90;102083.69;5049882;28;20507;-82
2022/01/16 07:36:41;;;;;;;18.00;15.27;;;;;;;3.92;73.40;102116.25;5049398;28;20259;-82
2022/01/16 07:39:14;;;;;;;18.70;15.67;;;;;;;3.93;72.96;102115.34;5066516;28;20041;-83
2022/01/16 07:41:41;;;;;;;17.57;14.50;;;;;;;3.83;73.05;102091.16;5067120;28;20524;-80
2022/01/16 07:44:08;;;;;;;16.90;15.00;;;;;;;3.99;73.33;102120.38;5083253;28;20048;-81
2022/01/16 07:46:34;;;;;;;21.90;15.07;;;;;;;4.03;73.36;102126.38;5067715;28;20137;-80
2022/01/16 07:49:01;;;;;;;15.33;13.73;;;;;;;3.99;73.60;102114.25;5084181;28;20464;-82
2022/01/16 07:51:29;;;;;;;16.93;14.33;;;;;;;4.05;73.76;102124.53;5050873;28;20052;-82
2022/01/16 07:53:56;;;;;;;16.33;14.17;;;;;;;3.88;73.79;102091.00;5067525;28;20045;-81
2022/01/16 07:56:22;;;;;;;16.50;14.80;;;;;;;4.07;73.81;102117.44;5050580;28;20053;-81
2022/01/16 07:58:49;;;;;;;15.70;14.13;;;;;;;3.83;73.48;102074.53;5066317;28;20434;-80
2022/01/16 08:01:16;;;;;;;17.73;14.80;;;;;;;4.06;73.86;102113.97;5070268;28;20501;-80
2022/01/16 08:03:43;;;;;;;16.10;14.13;;;;;;;4.13;73.90;102111.97;5070350;28;20533;-80
2022/01/16 08:06:19;;;;;;;16.67;14.37;;;;;;;4.11;73.72;102110.31;5088633;28;20421;-81
2022/01/16 08:08:45;;;;;;;18.07;14.90;;;;;;;4.07;73.52;102099.91;5069649;28;20101;-80
2022/01/16 08:11:15;;;;;;;15.63;14.00;;;;;;;4.11;73.28;102105.91;5050592;28;20063;-80
2022/01/16 08:13:41;;;;;;;15.37;13.77;;;;;;;4.34;73.88;102126.06;5068109;28;20502;-80
2022/01/16 08:16:08;;;;;;;22.20;14.00;;;;;;;4.42;73.37;102131.03;5050524;28;20044;-82
2022/01/16 08:18:35;;;;;;;15.17;13.40;;;;;;;4.43;72.73;102116.97;5050992;28;20052;-81
2022/01/16 08:21:02;;;;;;;18.50;13.37;;;;;;;4.23;72.50;102079.16;5050657;28;20076;-82
2022/01/16 08:23:29;;;;;;;13.23;11.13;;;;;;;4.24;71.38;102056.34;5050236;28;20513;-81
2022/01/16 08:25:55;;;;;;;12.90;11.10;;;;;;;4.82;70.76;102119.78;5049948;28;20384;-81
2022/01/16 08:28:24;;;;;;;13.00;11.63;;;;;;;5.09;69.41;102141.47;5049595;28;20075;-82
2022/01/16 08:30:54;;;;;;;10.60;9.50;;;;;;;4.82;68.83;102092.63;5050029;28;20135;-81
2022/01/16 08:33:20;;;;;;;11.93;10.63;;;;;;;5.12;68.15;102116.78;5049927;28;20135;-81
2022/01/16 08:35:48;;;;;;;13.43;11.47;;;;;;;5.27;67.34;102126.69;5083277;28;20232;-82
2022/01/16 08:38:14;;;;;;;13.50;11.47;;;;;;;5.48;67.51;102145.13;5049752;28;20155;-81
2022/01/16 08:40:41;;;;;;;14.77;12.17;;;;;;;5.54;66.60;102145.72;5047542;28;20303;-81
2022/01/16 08:43:11;;;;;;;15.27;12.37;;;;;;;5.48;66.28;102121.41;5065402;28;20036;-82
2022/01/16 08:45:40;;;;;;;15.67;12.67;;;;;;;5.78;66.24;102148.22;5069897;28;20056;-82
2022/01/16 08:48:08;;;;;;;16.97;13.70;;;;;;;5.59;65.73;102098.13;5069699;28;20105;-80
2022/01/16 08:50:37;;;;;;;18.13;13.13;;;;;;;6.10;63.83;102154.72;5087506;28;20420;-81
2022/01/16 08:53:03;;;;;;;14.95;13.32;;;;;;;6.14;63.42;102153.66;5070027;28;20498;-81
2022/01/16 08:55:34;;;;;;;16.17;13.40;;;;;;;6.12;62.54;102147.59;5069293;28;20461;-81
2022/01/16 08:58:02;;;;;;;16.77;13.50;;;;;;;6.08;63.45;102153.94;5069563;28;20139;-82
2022/01/16 09:00:28;;;;;;;14.57;13.07;;;;;;;5.93;63.50;102130.88;5069586;28;20580;-81
2022/01/16 09:02:57;;;;;;;18.80;14.33;;;;;;;6.12;63.60;102158.16;5087089;28;20090;-81
2022/01/16 09:05:25;;;;;;;15.50;13.83;;;;;;;5.83;62.90;102100.59;5069609;28;20052;-81
2022/01/16 09:07:52;;;;;;;16.53;14.03;;;;;;;5.56;62.78;102051.69;5074696;28;20076;-81
2022/01/16 09:10:19;;;;;;;17.10;14.10;;;;;;;6.13;62.76;102149.31;5082114;28;20041;-78
2022/01/16 09:12:48;;;;;;;18.00;15.13;;;;;;;6.06;62.98;102147.00;5049535;28;20049;-81
2022/01/16 09:15:14;;;;;;;16.93;15.13;;;;;;;6.19;63.12;102156.94;5048881;28;20152;-81
2022/01/16 09:17:41;;;;;;;18.47;16.03;;;;;;;5.47;62.68;102035.44;5049398;28;20076;-81
2022/01/16 09:20:13;;;;;;;19.70;16.00;;;;;;;6.09;63.08;102142.47;5082023;28;20052;-80
2022/01/16 09:22:44;;;;;;;22.93;17.80;;;;;;;6.20;63.11;102145.47;5047884;28;20571;-82
2022/01/16 09:25:14;;;;;;;26.65;19.95;;;;;;;6.36;62.77;102172.00;5047673;28;20330;-81
2022/01/16 09:27:41;;;;;;;22.67;19.53;;;;;;;6.38;62.95;102169.25;5050979;28;20075;-81
2022/01/16 09:30:10;;;;;;;20.90;18.53;;;;;;;6.30;63.30;102155.59;5048248;28;20072;-82
2022/01/16 09:32:37;;;;;;;24.30;21.23;;;;;;;5.69;63.58;102059.88;5049058;28;20446;-80
2022/01/16 09:35:05;;;;;;;23.37;20.97;;;;;;;6.41;63.60;102163.88;5049204;28;20055;-82
2022/01/16 09:37:32;;;;;;;28.67;22.17;;;;;;;6.62;63.11;102160.19;5049601;28;20154;-81
2022/01/16 09:40:00;;;;;;;27.83;24.87;;;;;;;6.69;63.13;102159.91;5048294;28;20129;-81
2022/01/16 09:42:29;;;;;;;29.63;26.52;;;;;;;5.79;63.13;101997.06;5065079;28;20123;-81
2022/01/16 09:44:57;;;;;;;29.67;26.57;;;;;;;6.19;63.21;102056.72;5048441;28;20052;-82
2022/01/16 09:47:24;;;;;;;33.40;28.25;;;;;;;6.29;62.84;102059.78;5065625;28;20040;-81
2022/01/16 09:49:51;;;;;;;34.97;31.17;;;;;;;6.87;63.51;102143.22;5048469;28;20055;-81
2022/01/16 09:52:18;;;;;;;34.23;29.17;;;;;;;6.90;63.23;102131.63;5067052;28;20056;-82
2022/01/16 09:54:50;;;;;;;35.67;30.73;;;;;;;6.33;63.57;102028.81;5048944;28;20272;-81
2022/01/16 10:01:10;;;;;;;32.90;29.38;;;;;;;7.17;63.33;102110.91;5022161;28;20432;-81
2022/01/16 10:03:46;;;;;;;33.70;30.02;;;;;;;7.47;62.99;102126.97;5050136;28;20130;-81
2022/01/16 10:06:38;;;;;;;33.15;29.73;;;;;;;7.59;62.19;102125.50;5052197;28;20040;-83
2022/01/16 10:09:22;;;;;;;32.92;29.38;;;;;;;7.67;62.11;102120.66;5051339;28;20037;-82
2022/01/16 10:12:02;;;;;;;34.08;30.40;;;;;;;7.73;61.88;102119.50;5052026;28;20070;-81
2022/01/16 10:14:47;;;;;;;35.92;32.15;;;;;;;7.73;62.06;102115.06;5068698;28;20103;-81
2022/01/16 10:17:31;;;;;;;35.63;31.83;;;;;;;7.44;62.11;102075.16;5050321;28;20523;-80
2022/01/16 10:20:07;;;;;;;38.15;33.03;;;;;;;7.79;62.06;102130.63;5048220;28;20514;-83
2022/01/16 10:22:39;;;;;;;41.72;33.50;;;;;;;7.48;62.01;102076.72;5048216;28;20533;-82
2022/01/16 10:25:14;;;;;;;;;;;;;;;7.86;61.90;102117.91;5048927;28;20136;-79
2022/01/16 10:27:44;;;;;;;40.58;33.72;;;;;;;7.07;62.15;101974.06;5047030;28;20417;-82
2022/01/16 10:30:14;;;;;;;38.70;34.65;;;;;;;7.86;62.46;102102.03;5048329;28;20394;-81
2022/01/16 10:32:45;;;;;;;39.90;35.13;;;;;;;8.11;62.13;102106.88;5066189;28;20059;-81
2022/01/16 10:35:22;;;;;;;40.30;36.20;;;;;;;7.97;61.92;102078.53;5048643;28;20056;-81
2022/01/16 10:37:52;;;;;;;43.63;36.13;;;;;;;7.90;61.99;102064.78;5047826;28;20045;-82
2022/01/16 10:40:34;;;;;;;41.72;37.33;;;;;;;7.82;61.84;102040.56;5048130;28;20515;-81
2022/01/16 10:43:13;;;;;;;39.88;34.88;;;;;;;8.24;61.59;102081.44;5048022;28;20048;-81
2022/01/16 10:45:42;;;;;;;38.05;33.97;;;;;;;8.34;61.06;102089.72;5065545;28;20052;-83
2022/01/16 10:48:11;;;;;;;39.17;34.90;;;;;;;8.05;61.17;102025.19;5064663;28;20049;-82
2022/01/16 10:50:39;;;;;;;39.15;35.08;;;;;;;8.40;60.51;102067.38;5048010;28;20075;-82
2022/01/16 10:53:15;;;;;;;39.90;35.25;;;;;;;8.20;60.48;102026.97;5068317;28;20051;-80
2022/01/16 10:56:02;;;;;;;39.58;35.33;;;;;;;7.53;60.48;101895.94;5053439;28;20546;-79
2022/01/16 10:58:39;;;;;;;39.63;34.72;;;;;;;7.87;59.98;101938.03;5051833;28;20549;-82
2022/01/16 11:01:13;;;;;;;39.45;34.63;;;;;;;8.03;59.98;101940.63;5051583;28;20056;-83
2022/01/16 11:03:42;;;;;;;38.65;34.47;;;;;;;8.77;59.08;102039.66;5048675;28;20062;-82
2022/01/16 11:06:08;;;;;;;37.35;33.53;;;;;;;8.77;59.36;102024.63;5066489;28;20040;-82
2022/01/16 11:08:36;;;;;;;39.90;35.65;;;;;;;8.90;59.02;101998.25;5051828;28;20084;-82
2022/01/16 11:11:03;;;;;;;37.97;33.90;;;;;;;9.27;58.39;102016.38;5069429;28;20150;-82
2022/01/16 11:13:34;;;;;;;40.67;36.40;;;;;;;9.50;57.39;102022.94;5069217;28;20052;-84
2022/01/16 11:16:07;;;;;;;45.00;38.45;;;;;;;9.58;57.48;102021.50;5069606;28;20450;-82
2022/01/16 11:18:38;;;;;;;39.22;34.97;;;;;;;9.75;57.71;102009.00;5069713;28;20044;-82
2022/01/16 11:26:18;;;;;;;39.58;34.30;;;;;;;9.90;56.33;102013.31;5069135;28;20045;-82
2022/01/16 11:28:45;;;;;;;40.08;35.88;;;;;;;9.54;55.86;101961.69;5069288;28;20106;-82
2022/01/16 11:31:13;;;;;;;39.60;35.35;;;;;;;9.35;56.53;101950.53;5069310;28;20127;-76
2022/01/16 11:33:42;;;;;;;39.60;35.55;;;;;;;9.68;56.67;102003.22;5051375;28;20195;-82
2022/01/16 11:36:23;;;;;;;38.78;34.47;;;;;;;9.78;55.60;102014.09;5068685;28;20139;-82
2022/01/16 11:38:56;;;;;;;42.78;36.40;;;;;;;9.39;56.80;101968.78;5068682;28;20495;-83
2022/01/16 11:41:30;;;;;;;39.08;34.80;;;;;;;9.56;57.27;102006.63;5068948;28;20506;-83
2022/01/16 11:44:03;;;;;;;40.30;35.95;;;;;;;9.10;57.67;101956.47;5083834;28;20068;-83
2022/01/16 11:46:42;;;;;;;44.30;36.60;;;;;;;9.31;58.29;102004.66;5067880;28;20040;-81
2022/01/16 11:49:17;;;;;;;37.25;33.47;;;;;;;9.45;58.02;102012.63;5051159;28;20151;-82
2022/01/16 11:52:04;;;;;;;39.97;35.25;;;;;;;9.42;58.23;102020.75;5051329;28;20063;-80
2022/01/16 11:54:56;;;;;;;37.83;33.78;;;;;;;8.86;58.27;101930.53;5052463;28;20062;-82
2022/01/16 11:58:29;;;;;;;35.05;31.45;;;;;;;7.92;57.13;101756.16;5006736;28;20061;-81
2022/01/16 12:01:45;;;;;;;37.42;33.55;;;;;;;8.08;58.84;101802.84;4930869;29;20062;-82
2022/01/16 12:04:37;;;;;;;36.75;32.95;;;;;;;8.49;57.50;101853.31;4957865;28;20209;-81
2022/01/16 12:07:07;;;;;;;;;;;;;;;9.41;58.23;102003.13;4967950;28;20054;-81
2022/01/16 12:09:34;;;;;;;35.20;31.48;;;;;;;8.96;58.54;101936.13;4985739;28;20027;-82
2022/01/16 12:12:01;;;;;;;35.72;31.88;;;;;;;8.31;57.67;101822.66;4986020;28;20067;-82
2022/01/16 12:14:55;;;;;;;36.22;32.28;;;;;;;9.35;57.86;101992.94;4969859;28;20431;-80
2022/01/16 12:17:26;;;;;;;37.40;33.40;;;;;;;9.28;58.40;101994.25;4985485;28;20058;-81